createdAt,value
2023-04-15T00:04:46.271Z,0
2023-04-15T00:10:05.705Z,0
2023-04-15T00:20:44.311Z,0
2023-04-15T00:26:03.822Z,0
2023-04-15T00:31:22.892Z,0
2023-04-15T00:36:41.922Z,0
2023-04-15T00:42:01.009Z,0
2023-04-15T00:47:20.083Z,0
2023-04-15T00:52:39.161Z,0
2023-04-15T00:57:58.483Z,0
2023-04-15T01:03:18.017Z,0
2023-04-15T01:08:37.630Z,0
2023-04-15T01:19:16.751Z,0
2023-04-15T01:24:36.262Z,0
2023-04-15T01:29:56.031Z,0
2023-04-15T01:35:15.159Z,0
2023-04-15T01:40:34.448Z,0
2023-04-15T01:45:53.893Z,0
2023-04-15T01:51:13.349Z,0
2023-04-15T01:56:32.289Z,0
2023-04-15T02:01:51.791Z,0
2023-04-15T02:07:11.399Z,0
2023-04-15T02:12:30.296Z,0
2023-04-15T02:17:49.352Z,0
2023-04-15T02:23:08.162Z,0
2023-04-15T02:28:27.294Z,0
2023-04-15T02:33:46.388Z,0
2023-04-15T02:39:05.902Z,0
2023-04-15T02:44:25.281Z,0
2023-04-15T02:49:44.948Z,0
2023-04-15T03:00:23.937Z,0
2023-04-15T03:11:02.842Z,0
2023-04-15T03:16:22.568Z,0
2023-04-15T03:21:41.610Z,0
2023-04-15T03:27:00.844Z,0
2023-04-15T03:32:19.867Z,0
2023-04-15T03:37:39.411Z,0
2023-04-15T03:42:58.856Z,0
2023-04-15T03:48:18.406Z,0
2023-04-15T03:58:56.282Z,0
2023-04-15T04:04:15.315Z,0
2023-04-15T04:09:34.859Z,0
2023-04-15T04:14:54.507Z,0
2023-04-15T04:20:13.541Z,1
2023-04-15T04:25:32.954Z,7
2023-04-15T04:36:11.727Z,25.45
2023-04-15T04:46:49.987Z,34.95
2023-04-15T04:52:09.014Z,43.44
2023-04-15T04:57:28.708Z,51.6
2023-04-15T05:02:48.220Z,61.8
2023-04-15T05:08:07.383Z,69.05
2023-04-15T05:13:26.874Z,78.14
2023-04-15T05:18:46.481Z,84.44
2023-04-15T05:24:06.204Z,93.79
2023-04-15T05:29:25.094Z,102.1
2023-04-15T05:34:44.567Z,113.85
2023-04-15T05:40:03.667Z,126.29
2023-04-15T05:45:23.086Z,136.64
2023-04-15T05:50:42.737Z,149.34
2023-04-15T05:56:02.255Z,150.75
2023-04-15T06:01:21.728Z,146.2
2023-04-15T06:06:40.615Z,147
2023-04-15T06:12:00.138Z,155.29
2023-04-15T06:17:19.425Z,182.54
2023-04-15T06:22:39.091Z,204.89
2023-04-15T06:27:58.636Z,226.95
2023-04-15T06:33:18.092Z,206.29
2023-04-15T06:43:56.310Z,186.84
2023-04-15T06:49:15.617Z,194.54
2023-04-15T06:54:34.890Z,187.84
2023-04-15T06:59:54.735Z,190.54
2023-04-15T07:05:14.283Z,209.5
2023-04-15T07:10:33.092Z,239.2
2023-04-15T07:15:52.744Z,273.79
2023-04-15T07:21:11.889Z,283.94
2023-04-15T07:26:31.472Z,305.44
2023-04-15T07:31:51.013Z,315.4
2023-04-15T07:37:09.723Z,342.34
2023-04-15T07:42:28.790Z,378.34
2023-04-15T07:53:06.803Z,355.15
2023-04-15T07:58:26.134Z,352.44
2023-04-15T08:03:46.221Z,398.04
2023-04-15T08:09:05.375Z,439.34
2023-04-15T08:14:24.186Z,472.65
2023-04-15T08:25:02.631Z,438.94
2023-04-15T08:30:21.982Z,427.4
2023-04-15T08:35:40.237Z,439.9
2023-04-15T08:40:59.257Z,483.75
2023-04-15T08:51:37.721Z,552.3
2023-04-15T08:56:56.586Z,591.05
2023-04-15T09:02:15.447Z,568.29
2023-04-15T09:07:34.523Z,587.05
2023-04-15T09:12:53.685Z,648.19
2023-04-15T09:18:13.315Z,282.14
2023-04-15T09:23:32.119Z,247.53
2023-04-15T09:34:10.679Z,53.53
2023-04-15T09:39:29.513Z,411.94
2023-04-15T09:44:48.884Z,396.5
2023-04-15T09:50:07.996Z,429.19
2023-04-15T09:55:26.791Z,556.25
2023-04-15T10:00:46.439Z,583.3
2023-04-15T10:06:06.320Z,596.94
2023-04-15T10:11:25.835Z,615.44
2023-04-15T10:16:44.765Z,20.83
2023-04-15T10:22:03.758Z,14.39
2023-04-15T10:27:23.232Z,76.89
2023-04-15T10:32:42.946Z,93.58
2023-04-15T10:38:01.793Z,460.69
2023-04-15T10:43:20.813Z,280.14
2023-04-15T10:48:39.870Z,242.34
2023-04-15T10:53:59.097Z,244.34
2023-04-15T10:59:19.201Z,226.95
2023-04-15T11:04:37.433Z,185.45
2023-04-15T11:09:56.169Z,176.59
2023-04-15T11:15:14.984Z,177.39
2023-04-15T11:25:53.188Z,200.29
2023-04-15T11:31:12.865Z,182.95
2023-04-15T11:36:32.515Z,180.5
2023-04-15T11:41:52.124Z,186.64
2023-04-15T11:47:11.761Z,200.64
2023-04-15T11:52:31.011Z,258.2
2023-04-15T11:57:49.960Z,250.75
2023-04-15T12:08:28.683Z,357.44
2023-04-15T12:13:47.571Z,378.19
2023-04-15T12:24:26.216Z,307.94
2023-04-15T12:35:03.884Z,248.04
2023-04-15T12:40:23.025Z,308.59
2023-04-15T12:45:41.806Z,316.54
2023-04-15T12:51:01.140Z,266.14
2023-04-15T12:56:20.701Z,251.75
2023-04-15T13:06:59.175Z,283.34
2023-04-15T13:12:18.773Z,226.95
2023-04-15T13:17:38.151Z,185.04
2023-04-15T13:23:05.429Z,168.89
2023-04-15T13:28:16.330Z,145.69
2023-04-15T13:33:35.289Z,132.29
2023-04-15T13:38:54.424Z,147.1
2023-04-15T13:44:13.395Z,137.85
2023-04-15T13:49:33.001Z,121.85
2023-04-15T13:55:07.350Z,95.7
2023-04-15T14:00:11.748Z,145.35
2023-04-15T14:05:31.213Z,150.25
2023-04-15T14:10:50.625Z,111.6
2023-04-15T14:16:09.602Z,166.54
2023-04-15T14:21:29.281Z,188.64
2023-04-15T14:26:48.121Z,167.95
2023-04-15T14:32:11.746Z,146.29
2023-04-15T14:37:59.450Z,116.1
2023-04-15T14:43:19.073Z,114.5
2023-04-15T14:48:38.209Z,107.64
2023-04-15T14:53:57.048Z,93.75
2023-04-15T14:59:16.160Z,92.5
2023-04-15T15:04:35.981Z,93.85
2023-04-15T15:09:55.078Z,82.09
2023-04-15T15:15:25.387Z,90.39
2023-04-15T15:20:34.097Z,82
2023-04-15T15:25:53.051Z,63.25
2023-04-15T15:36:31.599Z,83.05
2023-04-15T15:41:50.904Z,88.95
2023-04-15T15:47:09.728Z,83.2
2023-04-15T15:52:29.283Z,84.45
2023-04-15T16:03:08.169Z,117.44
2023-04-15T16:08:27.056Z,85.5
2023-04-15T16:13:45.925Z,95.75
2023-04-15T16:19:05.239Z,87.8
2023-04-15T16:24:23.941Z,72.44
2023-04-15T16:29:43.134Z,89.25
2023-04-15T16:35:02.636Z,100.35
2023-04-15T16:40:22.261Z,84.55
2023-04-15T16:45:51.667Z,67.19
2023-04-15T16:51:00.111Z,67
2023-04-15T16:56:19.149Z,56.35
2023-04-15T17:01:38.775Z,42.1
2023-04-15T17:12:17.566Z,56.1
2023-04-15T17:17:36.808Z,72.19
2023-04-15T17:22:56.359Z,69.44
2023-04-15T17:28:15.575Z,44.95
2023-04-15T17:33:56.021Z,39.7
2023-04-15T17:38:54.467Z,40.75
2023-04-15T17:44:14.017Z,35.5
2023-04-15T17:49:33.283Z,30.2
2023-04-15T17:54:52.843Z,25.1
2023-04-15T18:05:31.956Z,9
2023-04-15T18:10:50.726Z,5
2023-04-15T18:16:09.723Z,2
2023-04-15T18:21:28.914Z,0
2023-04-15T18:26:49.097Z,0
2023-04-15T18:32:08.460Z,0
2023-04-15T18:37:27.636Z,0
2023-04-15T18:48:06.864Z,0
2023-04-15T18:53:25.638Z,0
2023-04-15T18:59:09.124Z,0
2023-04-15T19:04:03.668Z,0
2023-04-15T19:09:22.545Z,0
2023-04-15T19:14:41.448Z,0
2023-04-15T19:20:00.808Z,0
2023-04-15T19:30:39.664Z,0
2023-04-15T19:35:58.645Z,0
2023-04-15T19:41:18.385Z,0
2023-04-15T19:46:38.139Z,0
2023-04-15T19:51:57.737Z,0
2023-04-15T20:02:36.082Z,0
2023-04-15T20:13:14.661Z,0
2023-04-15T20:18:33.690Z,0
2023-04-15T20:23:53.079Z,0
2023-04-15T20:29:12.569Z,0
2023-04-15T20:34:31.597Z,0
2023-04-15T20:39:50.532Z,0
2023-04-15T20:45:10.126Z,0
2023-04-15T20:50:28.875Z,0
2023-04-15T21:01:07.694Z,0
2023-04-15T21:06:26.677Z,0
2023-04-15T21:17:06.577Z,0
2023-04-15T21:22:25.522Z,0
2023-04-15T21:27:45.447Z,0
2023-04-15T21:33:04.494Z,0
2023-04-15T21:38:23.882Z,0
2023-04-15T21:43:42.863Z,0
2023-04-15T21:49:02.521Z,0
2023-04-15T21:54:21.951Z,0
2023-04-15T21:59:40.748Z,0
2023-04-15T22:04:59.605Z,0
2023-04-15T22:10:18.598Z,0
2023-04-15T22:15:37.537Z,0
2023-04-15T22:20:56.933Z,0
2023-04-15T22:26:16.634Z,0
2023-04-15T22:31:35.860Z,0
2023-04-15T22:36:55.055Z,0
2023-04-15T22:42:13.786Z,0
2023-04-15T22:47:32.672Z,0
2023-04-15T22:52:51.872Z,0
2023-04-15T22:58:11.494Z,0
2023-04-15T23:08:50.402Z,0
2023-04-15T23:14:09.769Z,0
2023-04-15T23:24:48.753Z,0
2023-04-15T23:30:15.573Z,0
2023-04-15T23:35:27.248Z,0
2023-04-15T23:40:46.367Z,0
2023-04-15T23:46:05.908Z,0
2023-04-15T23:51:25.374Z,0
2023-04-15T23:56:44.845Z,0
